sensor_id;sensor_type;location;lat;lon;timestamp;P1;durP1;ratioP1;P2;durP2;ratioP2
69841;SDS011;57138;51.326;-0.068;2024-03-02T00:01:10;7.30;;;1.38;;
69841;SDS011;57138;51.326;-0.068;2024-03-02T00:03:39;6.55;;;1.23;;
69841;SDS011;57138;51.326;-0.068;2024-03-02T00:06:06;7.07;;;1.33;;
69841;SDS011;57138;51.326;-0.068;2024-03-02T00:08:32;8.50;;;1.55;;
69841;SDS011;57138;51.326;-0.068;2024-03-02T00:10:58;17.13;;;1.25;;
69841;SDS011;57138;51.326;-0.068;2024-03-02T00:13:25;14.05;;;1.80;;
69841;SDS011;57138;51.326;-0.068;2024-03-02T00:15:54;7.88;;;1.75;;
69841;SDS011;57138;51.326;-0.068;2024-03-02T00:18:23;10.20;;;1.58;;
69841;SDS011;57138;51.326;-0.068;2024-03-02T00:20:56;12.93;;;1.85;;
69841;SDS011;57138;51.326;-0.068;2024-03-02T00:23:22;8.30;;;1.70;;
69841;SDS011;57138;51.326;-0.068;2024-03-02T00:25:50;9.23;;;1.92;;
69841;SDS011;57138;51.326;-0.068;2024-03-02T00:28:21;7.55;;;1.52;;
69841;SDS011;57138;51.326;-0.068;2024-03-02T00:33:20;7.97;;;2.55;;
69841;SDS011;57138;51.326;-0.068;2024-03-02T00:35:46;12.73;;;2.33;;
69841;SDS011;57138;51.326;-0.068;2024-03-02T00:38:15;14.32;;;2.53;;
69841;SDS011;57138;51.326;-0.068;2024-03-02T00:40:43;14.32;;;2.33;;
69841;SDS011;57138;51.326;-0.068;2024-03-02T00:45:58;12.38;;;2.38;;
69841;SDS011;57138;51.326;-0.068;2024-03-02T00:48:23;18.25;;;2.20;;
69841;SDS011;57138;51.326;-0.068;2024-03-02T00:50:52;9.98;;;2.00;;
69841;SDS011;57138;51.326;-0.068;2024-03-02T00:53:18;10.60;;;1.95;;
69841;SDS011;57138;51.326;-0.068;2024-03-02T00:55:52;18.98;;;1.98;;
69841;SDS011;57138;51.326;-0.068;2024-03-02T00:58:17;14.73;;;2.88;;
69841;SDS011;57138;51.326;-0.068;2024-03-02T01:00:43;20.30;;;2.10;;
69841;SDS011;57138;51.326;-0.068;2024-03-02T01:03:08;18.83;;;1.75;;
69841;SDS011;57138;51.326;-0.068;2024-03-02T01:05:35;13.05;;;2.03;;
69841;SDS011;57138;51.326;-0.068;2024-03-02T01:08:01;11.85;;;1.58;;
69841;SDS011;57138;51.326;-0.068;2024-03-02T01:10:26;18.00;;;3.10;;
69841;SDS011;57138;51.326;-0.068;2024-03-02T01:12:52;14.88;;;2.72;;
69841;SDS011;57138;51.326;-0.068;2024-03-02T01:15:18;13.18;;;1.73;;
69841;SDS011;57138;51.326;-0.068;2024-03-02T01:17:43;12.38;;;1.55;;
69841;SDS011;57138;51.326;-0.068;2024-03-02T01:20:09;8.63;;;1.67;;
69841;SDS011;57138;51.326;-0.068;2024-03-02T01:22:34;18.80;;;2.47;;
69841;SDS011;57138;51.326;-0.068;2024-03-02T01:25:01;14.10;;;1.88;;
69841;SDS011;57138;51.326;-0.068;2024-03-02T01:27:26;12.80;;;1.50;;
69841;SDS011;57138;51.326;-0.068;2024-03-02T01:29:52;15.20;;;2.80;;
69841;SDS011;57138;51.326;-0.068;2024-03-02T01:32:17;20.02;;;2.22;;
69841;SDS011;57138;51.326;-0.068;2024-03-02T01:34:43;13.35;;;2.13;;
69841;SDS011;57138;51.326;-0.068;2024-03-02T01:37:08;11.05;;;1.83;;
69841;SDS011;57138;51.326;-0.068;2024-03-02T01:39:35;13.43;;;1.48;;
69841;SDS011;57138;51.326;-0.068;2024-03-02T01:42:00;7.43;;;0.88;;
69841;SDS011;57138;51.326;-0.068;2024-03-02T01:44:26;3.30;;;0.90;;
69841;SDS011;57138;51.326;-0.068;2024-03-02T01:46:52;7.28;;;1.55;;
69841;SDS011;57138;51.326;-0.068;2024-03-02T01:49:17;13.90;;;1.42;;
69841;SDS011;57138;51.326;-0.068;2024-03-02T01:51:43;8.75;;;1.20;;
69841;SDS011;57138;51.326;-0.068;2024-03-02T01:54:09;10.05;;;1.58;;
69841;SDS011;57138;51.326;-0.068;2024-03-02T01:56:35;11.02;;;1.05;;
69841;SDS011;57138;51.326;-0.068;2024-03-02T01:59:01;13.00;;;1.77;;
69841;SDS011;57138;51.326;-0.068;2024-03-02T02:01:26;12.55;;;1.10;;
69841;SDS011;57138;51.326;-0.068;2024-03-02T02:03:52;19.27;;;2.08;;
69841;SDS011;57138;51.326;-0.068;2024-03-02T02:06:17;18.15;;;1.95;;
69841;SDS011;57138;51.326;-0.068;2024-03-02T02:08:43;13.13;;;2.63;;
69841;SDS011;57138;51.326;-0.068;2024-03-02T02:11:08;10.32;;;1.52;;
69841;SDS011;57138;51.326;-0.068;2024-03-02T02:13:34;10.98;;;1.70;;
69841;SDS011;57138;51.326;-0.068;2024-03-02T02:16:06;15.93;;;1.75;;
69841;SDS011;57138;51.326;-0.068;2024-03-02T02:18:32;17.83;;;1.50;;
69841;SDS011;57138;51.326;-0.068;2024-03-02T02:20:58;13.10;;;1.40;;
69841;SDS011;57138;51.326;-0.068;2024-03-02T02:23:23;11.80;;;1.23;;
69841;SDS011;57138;51.326;-0.068;2024-03-02T02:25:49;11.77;;;1.90;;
69841;SDS011;57138;51.326;-0.068;2024-03-02T02:28:14;15.13;;;1.58;;
69841;SDS011;57138;51.326;-0.068;2024-03-02T02:30:39;19.67;;;2.08;;
69841;SDS011;57138;51.326;-0.068;2024-03-02T02:33:05;11.13;;;1.63;;
69841;SDS011;57138;51.326;-0.068;2024-03-02T02:35:30;23.77;;;2.42;;
69841;SDS011;57138;51.326;-0.068;2024-03-02T02:37:56;27.85;;;1.75;;
69841;SDS011;57138;51.326;-0.068;2024-03-02T02:40:23;16.77;;;1.75;;
69841;SDS011;57138;51.326;-0.068;2024-03-02T02:42:48;14.57;;;2.03;;
69841;SDS011;57138;51.326;-0.068;2024-03-02T02:45:14;13.60;;;1.50;;
69841;SDS011;57138;51.326;-0.068;2024-03-02T02:47:39;22.67;;;2.00;;
69841;SDS011;57138;51.326;-0.068;2024-03-02T02:50:09;21.85;;;3.08;;
69841;SDS011;57138;51.326;-0.068;2024-03-02T02:52:36;16.67;;;2.13;;
69841;SDS011;57138;51.326;-0.068;2024-03-02T02:55:09;15.75;;;1.58;;
69841;SDS011;57138;51.326;-0.068;2024-03-02T02:57:36;23.17;;;2.75;;
69841;SDS011;57138;51.326;-0.068;2024-03-02T03:00:07;19.95;;;3.22;;
69841;SDS011;57138;51.326;-0.068;2024-03-02T03:02:41;11.27;;;1.25;;
69841;SDS011;57138;51.326;-0.068;2024-03-02T03:05:07;7.45;;;1.20;;
69841;SDS011;57138;51.326;-0.068;2024-03-02T03:07:37;15.90;;;2.50;;
69841;SDS011;57138;51.326;-0.068;2024-03-02T03:10:04;24.98;;;1.77;;
69841;SDS011;57138;51.326;-0.068;2024-03-02T03:12:31;10.80;;;2.20;;
69841;SDS011;57138;51.326;-0.068;2024-03-02T03:14:57;23.25;;;3.20;;
69841;SDS011;57138;51.326;-0.068;2024-03-02T03:17:23;16.65;;;1.70;;
69841;SDS011;57138;51.326;-0.068;2024-03-02T03:19:49;12.60;;;1.55;;
69841;SDS011;57138;51.326;-0.068;2024-03-02T03:22:15;12.07;;;2.45;;
69841;SDS011;57138;51.326;-0.068;2024-03-02T03:24:41;18.13;;;2.53;;
69841;SDS011;57138;51.326;-0.068;2024-03-02T03:27:07;18.30;;;1.60;;
69841;SDS011;57138;51.326;-0.068;2024-03-02T03:29:32;26.95;;;3.03;;
69841;SDS011;57138;51.326;-0.068;2024-03-02T03:31:57;16.75;;;2.08;;
69841;SDS011;57138;51.326;-0.068;2024-03-02T03:34:23;23.23;;;2.53;;
69841;SDS011;57138;51.326;-0.068;2024-03-02T03:36:48;20.52;;;2.75;;
69841;SDS011;57138;51.326;-0.068;2024-03-02T03:39:14;21.85;;;3.20;;
69841;SDS011;57138;51.326;-0.068;2024-03-02T03:41:42;12.07;;;1.95;;
69841;SDS011;57138;51.326;-0.068;2024-03-02T03:44:07;14.80;;;1.90;;
69841;SDS011;57138;51.326;-0.068;2024-03-02T03:46:33;19.90;;;2.75;;
69841;SDS011;57138;51.326;-0.068;2024-03-02T03:48:58;21.20;;;3.60;;
69841;SDS011;57138;51.326;-0.068;2024-03-02T03:51:24;40.20;;;4.80;;
69841;SDS011;57138;51.326;-0.068;2024-03-02T03:53:49;14.82;;;2.25;;
69841;SDS011;57138;51.326;-0.068;2024-03-02T03:56:15;10.95;;;1.95;;
69841;SDS011;57138;51.326;-0.068;2024-03-02T03:58:40;21.50;;;3.03;;
69841;SDS011;57138;51.326;-0.068;2024-03-02T04:01:05;12.82;;;1.58;;
69841;SDS011;57138;51.326;-0.068;2024-03-02T04:03:31;14.88;;;1.92;;
69841;SDS011;57138;51.326;-0.068;2024-03-02T04:05:56;26.77;;;3.47;;
69841;SDS011;57138;51.326;-0.068;2024-03-02T04:08:21;16.60;;;3.00;;
69841;SDS011;57138;51.326;-0.068;2024-03-02T04:10:47;24.38;;;3.45;;
69841;SDS011;57138;51.326;-0.068;2024-03-02T04:13:12;17.05;;;2.50;;
69841;SDS011;57138;51.326;-0.068;2024-03-02T04:15:38;13.40;;;2.03;;
69841;SDS011;57138;51.326;-0.068;2024-03-02T04:18:03;14.27;;;2.17;;
69841;SDS011;57138;51.326;-0.068;2024-03-02T04:20:29;13.18;;;2.95;;
69841;SDS011;57138;51.326;-0.068;2024-03-02T04:22:55;17.35;;;2.28;;
69841;SDS011;57138;51.326;-0.068;2024-03-02T04:25:20;25.88;;;3.35;;
69841;SDS011;57138;51.326;-0.068;2024-03-02T04:27:46;21.10;;;2.38;;
69841;SDS011;57138;51.326;-0.068;2024-03-02T04:30:12;14.27;;;2.03;;
69841;SDS011;57138;51.326;-0.068;2024-03-02T04:32:37;15.02;;;1.98;;
69841;SDS011;57138;51.326;-0.068;2024-03-02T04:35:04;22.70;;;2.90;;
69841;SDS011;57138;51.326;-0.068;2024-03-02T04:37:30;19.52;;;2.60;;
69841;SDS011;57138;51.326;-0.068;2024-03-02T04:39:57;20.73;;;2.63;;
69841;SDS011;57138;51.326;-0.068;2024-03-02T04:42:22;30.23;;;2.95;;
69841;SDS011;57138;51.326;-0.068;2024-03-02T04:44:48;22.15;;;2.65;;
69841;SDS011;57138;51.326;-0.068;2024-03-02T04:47:13;14.30;;;2.25;;
69841;SDS011;57138;51.326;-0.068;2024-03-02T04:49:39;17.48;;;2.30;;
69841;SDS011;57138;51.326;-0.068;2024-03-02T04:52:04;21.00;;;2.67;;
69841;SDS011;57138;51.326;-0.068;2024-03-02T04:54:30;25.75;;;2.22;;
69841;SDS011;57138;51.326;-0.068;2024-03-02T04:56:55;20.80;;;3.35;;
69841;SDS011;57138;51.326;-0.068;2024-03-02T04:59:20;12.48;;;1.60;;
69841;SDS011;57138;51.326;-0.068;2024-03-02T05:01:46;14.25;;;1.95;;
69841;SDS011;57138;51.326;-0.068;2024-03-02T05:04:12;16.63;;;2.25;;
69841;SDS011;57138;51.326;-0.068;2024-03-02T05:06:38;15.43;;;2.03;;
69841;SDS011;57138;51.326;-0.068;2024-03-02T05:09:05;27.35;;;2.35;;
69841;SDS011;57138;51.326;-0.068;2024-03-02T05:11:31;12.73;;;1.45;;
69841;SDS011;57138;51.326;-0.068;2024-03-02T05:14:15;16.45;;;2.33;;
69841;SDS011;57138;51.326;-0.068;2024-03-02T05:16:41;22.17;;;2.15;;
69841;SDS011;57138;51.326;-0.068;2024-03-02T05:19:09;24.27;;;3.42;;
69841;SDS011;57138;51.326;-0.068;2024-03-02T05:21:34;14.95;;;2.60;;
69841;SDS011;57138;51.326;-0.068;2024-03-02T05:24:00;22.50;;;3.35;;
69841;SDS011;57138;51.326;-0.068;2024-03-02T05:26:25;18.23;;;2.10;;
69841;SDS011;57138;51.326;-0.068;2024-03-02T05:28:50;18.50;;;2.40;;
69841;SDS011;57138;51.326;-0.068;2024-03-02T05:31:16;18.45;;;2.70;;
69841;SDS011;57138;51.326;-0.068;2024-03-02T05:33:42;17.30;;;3.00;;
69841;SDS011;57138;51.326;-0.068;2024-03-02T05:36:08;15.60;;;1.85;;
69841;SDS011;57138;51.326;-0.068;2024-03-02T05:38:36;21.77;;;3.20;;
69841;SDS011;57138;51.326;-0.068;2024-03-02T05:41:02;18.90;;;2.55;;
69841;SDS011;57138;51.326;-0.068;2024-03-02T05:43:28;19.55;;;2.70;;
69841;SDS011;57138;51.326;-0.068;2024-03-02T05:45:54;19.17;;;2.08;;
69841;SDS011;57138;51.326;-0.068;2024-03-02T05:48:19;21.55;;;3.30;;
69841;SDS011;57138;51.326;-0.068;2024-03-02T05:50:45;20.92;;;1.98;;
69841;SDS011;57138;51.326;-0.068;2024-03-02T05:53:10;20.83;;;2.40;;
69841;SDS011;57138;51.326;-0.068;2024-03-02T05:55:35;11.27;;;2.72;;
69841;SDS011;57138;51.326;-0.068;2024-03-02T05:58:01;30.58;;;5.22;;
69841;SDS011;57138;51.326;-0.068;2024-03-02T06:00:45;32.55;;;4.57;;
69841;SDS011;57138;51.326;-0.068;2024-03-02T06:03:10;19.23;;;3.15;;
69841;SDS011;57138;51.326;-0.068;2024-03-02T06:05:36;18.90;;;3.08;;
69841;SDS011;57138;51.326;-0.068;2024-03-02T06:08:01;15.88;;;2.53;;
69841;SDS011;57138;51.326;-0.068;2024-03-02T06:10:26;23.95;;;3.58;;
69841;SDS011;57138;51.326;-0.068;2024-03-02T06:12:52;21.77;;;3.38;;
69841;SDS011;57138;51.326;-0.068;2024-03-02T06:15:17;15.00;;;1.52;;
69841;SDS011;57138;51.326;-0.068;2024-03-02T06:17:43;22.05;;;3.15;;
69841;SDS011;57138;51.326;-0.068;2024-03-02T06:20:09;24.17;;;2.20;;
69841;SDS011;57138;51.326;-0.068;2024-03-02T06:22:35;19.60;;;2.10;;
69841;SDS011;57138;51.326;-0.068;2024-03-02T06:25:00;18.67;;;3.05;;
69841;SDS011;57138;51.326;-0.068;2024-03-02T06:27:26;20.38;;;2.70;;
69841;SDS011;57138;51.326;-0.068;2024-03-02T06:29:51;17.65;;;3.13;;
69841;SDS011;57138;51.326;-0.068;2024-03-02T06:32:16;18.48;;;1.95;;
69841;SDS011;57138;51.326;-0.068;2024-03-02T06:34:42;21.75;;;4.20;;
69841;SDS011;57138;51.326;-0.068;2024-03-02T06:37:07;19.45;;;1.67;;
69841;SDS011;57138;51.326;-0.068;2024-03-02T06:39:33;11.20;;;1.33;;
69841;SDS011;57138;51.326;-0.068;2024-03-02T06:41:59;11.95;;;1.83;;
69841;SDS011;57138;51.326;-0.068;2024-03-02T06:44:25;19.83;;;1.85;;
69841;SDS011;57138;51.326;-0.068;2024-03-02T06:46:50;18.60;;;2.70;;
69841;SDS011;57138;51.326;-0.068;2024-03-02T06:49:16;12.15;;;1.77;;
69841;SDS011;57138;51.326;-0.068;2024-03-02T06:51:43;9.93;;;1.67;;
69841;SDS011;57138;51.326;-0.068;2024-03-02T06:54:09;15.27;;;2.17;;
69841;SDS011;57138;51.326;-0.068;2024-03-02T06:56:34;12.20;;;2.28;;
69841;SDS011;57138;51.326;-0.068;2024-03-02T06:59:00;15.02;;;2.78;;
69841;SDS011;57138;51.326;-0.068;2024-03-02T07:01:25;23.13;;;3.10;;
69841;SDS011;57138;51.326;-0.068;2024-03-02T07:03:51;8.13;;;1.80;;
69841;SDS011;57138;51.326;-0.068;2024-03-02T07:06:17;24.70;;;2.03;;
69841;SDS011;57138;51.326;-0.068;2024-03-02T07:08:42;20.17;;;2.58;;
69841;SDS011;57138;51.326;-0.068;2024-03-02T07:11:08;11.15;;;2.08;;
69841;SDS011;57138;51.326;-0.068;2024-03-02T07:13:34;15.93;;;2.58;;
69841;SDS011;57138;51.326;-0.068;2024-03-02T07:15:59;10.63;;;2.47;;
69841;SDS011;57138;51.326;-0.068;2024-03-02T07:18:28;17.58;;;3.28;;
69841;SDS011;57138;51.326;-0.068;2024-03-02T07:20:58;8.55;;;1.45;;
69841;SDS011;57138;51.326;-0.068;2024-03-02T07:23:26;9.93;;;1.42;;
69841;SDS011;57138;51.326;-0.068;2024-03-02T07:25:52;10.60;;;1.23;;
69841;SDS011;57138;51.326;-0.068;2024-03-02T07:28:21;7.68;;;2.05;;
69841;SDS011;57138;51.326;-0.068;2024-03-02T07:30:57;17.08;;;3.33;;
69841;SDS011;57138;51.326;-0.068;2024-03-02T07:33:24;12.93;;;1.88;;
69841;SDS011;57138;51.326;-0.068;2024-03-02T07:35:49;15.82;;;1.83;;
69841;SDS011;57138;51.326;-0.068;2024-03-02T07:38:14;8.52;;;1.92;;
69841;SDS011;57138;51.326;-0.068;2024-03-02T07:40:40;12.27;;;1.88;;
69841;SDS011;57138;51.326;-0.068;2024-03-02T07:43:05;15.48;;;1.92;;
69841;SDS011;57138;51.326;-0.068;2024-03-02T07:45:31;12.43;;;2.67;;
69841;SDS011;57138;51.326;-0.068;2024-03-02T07:47:56;23.80;;;5.00;;
69841;SDS011;57138;51.326;-0.068;2024-03-02T07:50:22;23.58;;;2.00;;
69841;SDS011;57138;51.326;-0.068;2024-03-02T07:52:47;8.90;;;1.45;;
69841;SDS011;57138;51.326;-0.068;2024-03-02T07:55:13;8.88;;;2.80;;
69841;SDS011;57138;51.326;-0.068;2024-03-02T07:57:38;13.43;;;1.27;;
69841;SDS011;57138;51.326;-0.068;2024-03-02T08:00:05;9.60;;;2.38;;
69841;SDS011;57138;51.326;-0.068;2024-03-02T08:02:31;11.20;;;2.20;;
69841;SDS011;57138;51.326;-0.068;2024-03-02T08:04:57;9.52;;;1.50;;
69841;SDS011;57138;51.326;-0.068;2024-03-02T08:07:22;21.30;;;2.25;;
69841;SDS011;57138;51.326;-0.068;2024-03-02T08:09:47;10.90;;;1.63;;
69841;SDS011;57138;51.326;-0.068;2024-03-02T08:12:13;13.32;;;1.40;;
69841;SDS011;57138;51.326;-0.068;2024-03-02T08:14:38;15.48;;;2.17;;
69841;SDS011;57138;51.326;-0.068;2024-03-02T08:17:04;22.23;;;2.70;;
69841;SDS011;57138;51.326;-0.068;2024-03-02T08:19:34;9.85;;;1.98;;
69841;SDS011;57138;51.326;-0.068;2024-03-02T08:22:00;13.05;;;2.10;;
69841;SDS011;57138;51.326;-0.068;2024-03-02T08:24:25;15.45;;;2.42;;
69841;SDS011;57138;51.326;-0.068;2024-03-02T08:26:51;15.00;;;2.85;;
69841;SDS011;57138;51.326;-0.068;2024-03-02T08:29:16;15.15;;;2.30;;
69841;SDS011;57138;51.326;-0.068;2024-03-02T08:31:42;9.95;;;1.42;;
69841;SDS011;57138;51.326;-0.068;2024-03-02T08:34:07;15.50;;;2.55;;
69841;SDS011;57138;51.326;-0.068;2024-03-02T08:36:34;11.55;;;1.80;;
69841;SDS011;57138;51.326;-0.068;2024-03-02T08:38:59;19.25;;;2.30;;
69841;SDS011;57138;51.326;-0.068;2024-03-02T08:41:25;11.70;;;2.10;;
69841;SDS011;57138;51.326;-0.068;2024-03-02T08:43:50;14.15;;;2.13;;
69841;SDS011;57138;51.326;-0.068;2024-03-02T08:46:16;13.43;;;2.47;;
69841;SDS011;57138;51.326;-0.068;2024-03-02T08:48:41;16.48;;;2.13;;
69841;SDS011;57138;51.326;-0.068;2024-03-02T08:51:06;19.45;;;3.28;;
69841;SDS011;57138;51.326;-0.068;2024-03-02T08:53:35;11.02;;;1.40;;
69841;SDS011;57138;51.326;-0.068;2024-03-02T08:56:01;11.88;;;1.40;;
69841;SDS011;57138;51.326;-0.068;2024-03-02T08:58:26;5.65;;;0.85;;
69841;SDS011;57138;51.326;-0.068;2024-03-02T09:00:52;9.43;;;0.90;;
69841;SDS011;57138;51.326;-0.068;2024-03-02T09:03:17;15.68;;;2.72;;
69841;SDS011;57138;51.326;-0.068;2024-03-02T09:05:43;3.20;;;0.73;;
69841;SDS011;57138;51.326;-0.068;2024-03-02T09:08:08;12.52;;;1.38;;
69841;SDS011;57138;51.326;-0.068;2024-03-02T09:10:34;7.50;;;1.00;;
69841;SDS011;57138;51.326;-0.068;2024-03-02T09:12:59;8.02;;;2.13;;
69841;SDS011;57138;51.326;-0.068;2024-03-02T09:15:25;8.50;;;1.45;;
69841;SDS011;57138;51.326;-0.068;2024-03-02T09:17:51;6.32;;;1.15;;
69841;SDS011;57138;51.326;-0.068;2024-03-02T09:20:16;10.50;;;2.28;;
69841;SDS011;57138;51.326;-0.068;2024-03-02T09:22:41;8.55;;;1.35;;
69841;SDS011;57138;51.326;-0.068;2024-03-02T09:25:07;11.32;;;0.93;;
69841;SDS011;57138;51.326;-0.068;2024-03-02T09:27:36;8.77;;;1.50;;
69841;SDS011;57138;51.326;-0.068;2024-03-02T09:30:02;7.40;;;1.55;;
69841;SDS011;57138;51.326;-0.068;2024-03-02T09:32:30;10.00;;;2.35;;
69841;SDS011;57138;51.326;-0.068;2024-03-02T09:34:56;16.40;;;2.67;;
69841;SDS011;57138;51.326;-0.068;2024-03-02T09:37:21;6.35;;;1.58;;
69841;SDS011;57138;51.326;-0.068;2024-03-02T09:39:46;10.07;;;1.75;;
69841;SDS011;57138;51.326;-0.068;2024-03-02T09:42:13;8.40;;;1.63;;
69841;SDS011;57138;51.326;-0.068;2024-03-02T09:44:39;15.00;;;1.65;;
69841;SDS011;57138;51.326;-0.068;2024-03-02T09:47:04;7.07;;;0.98;;
69841;SDS011;57138;51.326;-0.068;2024-03-02T09:49:32;12.23;;;2.00;;
69841;SDS011;57138;51.326;-0.068;2024-03-02T09:51:57;11.88;;;1.92;;
69841;SDS011;57138;51.326;-0.068;2024-03-02T09:54:23;13.18;;;2.10;;
69841;SDS011;57138;51.326;-0.068;2024-03-02T09:56:49;11.77;;;1.75;;
69841;SDS011;57138;51.326;-0.068;2024-03-02T09:59:16;8.32;;;2.10;;
69841;SDS011;57138;51.326;-0.068;2024-03-02T10:01:57;10.75;;;1.60;;
69841;SDS011;57138;51.326;-0.068;2024-03-02T10:04:26;11.13;;;1.23;;
69841;SDS011;57138;51.326;-0.068;2024-03-02T10:07:09;22.42;;;2.70;;
69841;SDS011;57138;51.326;-0.068;2024-03-02T10:09:36;10.43;;;1.00;;
69841;SDS011;57138;51.326;-0.068;2024-03-02T10:12:05;5.25;;;1.13;;
69841;SDS011;57138;51.326;-0.068;2024-03-02T10:14:31;3.22;;;0.60;;
69841;SDS011;57138;51.326;-0.068;2024-03-02T10:17:01;2.42;;;0.52;;
69841;SDS011;57138;51.326;-0.068;2024-03-02T10:19:28;3.38;;;0.55;;
69841;SDS011;57138;51.326;-0.068;2024-03-02T10:21:57;21.77;;;1.98;;
69841;SDS011;57138;51.326;-0.068;2024-03-02T10:24:23;9.75;;;1.10;;
69841;SDS011;57138;51.326;-0.068;2024-03-02T10:26:50;16.63;;;1.83;;
69841;SDS011;57138;51.326;-0.068;2024-03-02T10:29:16;7.78;;;1.48;;
69841;SDS011;57138;51.326;-0.068;2024-03-02T10:31:42;1.13;;;0.30;;
69841;SDS011;57138;51.326;-0.068;2024-03-02T10:34:09;1.40;;;0.40;;
69841;SDS011;57138;51.326;-0.068;2024-03-02T10:36:36;2.75;;;0.45;;
69841;SDS011;57138;51.326;-0.068;2024-03-02T10:39:03;4.25;;;0.80;;
69841;SDS011;57138;51.326;-0.068;2024-03-02T10:41:34;2.70;;;0.30;;
69841;SDS011;57138;51.326;-0.068;2024-03-02T10:44:02;2.30;;;0.40;;
69841;SDS011;57138;51.326;-0.068;2024-03-02T10:46:29;2.00;;;0.50;;
69841;SDS011;57138;51.326;-0.068;2024-03-02T10:48:59;1.77;;;0.43;;
69841;SDS011;57138;51.326;-0.068;2024-03-02T10:51:25;4.45;;;0.85;;
69841;SDS011;57138;51.326;-0.068;2024-03-02T10:53:53;1.75;;;0.68;;
69841;SDS011;57138;51.326;-0.068;2024-03-02T10:56:29;1.25;;;0.20;;
69841;SDS011;57138;51.326;-0.068;2024-03-02T11:01:31;1.40;;;0.40;;
69841;SDS011;57138;51.326;-0.068;2024-03-02T11:03:58;2.10;;;0.60;;
69841;SDS011;57138;51.326;-0.068;2024-03-02T11:06:26;3.15;;;0.60;;
69841;SDS011;57138;51.326;-0.068;2024-03-02T11:08:53;47.60;;;2.92;;
69841;SDS011;57138;51.326;-0.068;2024-03-02T11:11:27;1.75;;;0.30;;
69841;SDS011;57138;51.326;-0.068;2024-03-02T11:13:56;7.97;;;0.60;;
69841;SDS011;57138;51.326;-0.068;2024-03-02T11:16:33;1.05;;;0.20;;
69841;SDS011;57138;51.326;-0.068;2024-03-02T11:19:05;0.98;;;0.40;;
69841;SDS011;57138;51.326;-0.068;2024-03-02T11:21:35;2.40;;;0.40;;
69841;SDS011;57138;51.326;-0.068;2024-03-02T11:26:46;1.02;;;0.30;;
69841;SDS011;57138;51.326;-0.068;2024-03-02T11:29:54;1.95;;;0.50;;
69841;SDS011;57138;51.326;-0.068;2024-03-02T11:32:00;3.25;;;0.95;;
69841;SDS011;57138;51.326;-0.068;2024-03-02T11:34:30;1.35;;;0.50;;
69841;SDS011;57138;51.326;-0.068;2024-03-02T11:37:03;1.67;;;0.40;;
69841;SDS011;57138;51.326;-0.068;2024-03-02T11:39:29;0.40;;;0.30;;
69841;SDS011;57138;51.326;-0.068;2024-03-02T11:41:55;0.85;;;0.35;;
69841;SDS011;57138;51.326;-0.068;2024-03-02T11:44:25;1.20;;;0.45;;
69841;SDS011;57138;51.326;-0.068;2024-03-02T11:46:52;2.20;;;0.52;;
69841;SDS011;57138;51.326;-0.068;2024-03-02T11:52:13;0.90;;;0.30;;
69841;SDS011;57138;51.326;-0.068;2024-03-02T11:54:41;2.20;;;0.50;;
69841;SDS011;57138;51.326;-0.068;2024-03-02T11:57:17;7.53;;;0.50;;
69841;SDS011;57138;51.326;-0.068;2024-03-02T11:59:44;3.38;;;0.40;;
69841;SDS011;57138;51.326;-0.068;2024-03-02T12:02:17;5.35;;;0.90;;
69841;SDS011;57138;51.326;-0.068;2024-03-02T12:04:44;2.13;;;0.40;;
69841;SDS011;57138;51.326;-0.068;2024-03-02T12:07:10;2.70;;;0.52;;
69841;SDS011;57138;51.326;-0.068;2024-03-02T12:09:36;1.52;;;0.70;;
69841;SDS011;57138;51.326;-0.068;2024-03-02T12:12:05;1.45;;;0.40;;
69841;SDS011;57138;51.326;-0.068;2024-03-02T12:14:32;1.48;;;0.45;;
69841;SDS011;57138;51.326;-0.068;2024-03-02T12:16:59;7.32;;;1.60;;
69841;SDS011;57138;51.326;-0.068;2024-03-02T12:19:26;4.50;;;0.45;;
69841;SDS011;57138;51.326;-0.068;2024-03-02T12:21:54;4.88;;;0.68;;
69841;SDS011;57138;51.326;-0.068;2024-03-02T12:24:21;4.97;;;0.50;;
69841;SDS011;57138;51.326;-0.068;2024-03-02T12:26:48;3.65;;;1.00;;
69841;SDS011;57138;51.326;-0.068;2024-03-02T12:29:16;2.38;;;0.35;;
69841;SDS011;57138;51.326;-0.068;2024-03-02T12:31:42;4.60;;;0.60;;
69841;SDS011;57138;51.326;-0.068;2024-03-02T12:34:11;1.67;;;0.45;;
69841;SDS011;57138;51.326;-0.068;2024-03-02T12:36:39;1.55;;;0.55;;
69841;SDS011;57138;51.326;-0.068;2024-03-02T12:39:07;4.50;;;0.40;;
69841;SDS011;57138;51.326;-0.068;2024-03-02T12:41:35;1.45;;;0.30;;
69841;SDS011;57138;51.326;-0.068;2024-03-02T12:44:04;4.28;;;0.57;;
69841;SDS011;57138;51.326;-0.068;2024-03-02T12:46:32;1.38;;;0.43;;
69841;SDS011;57138;51.326;-0.068;2024-03-02T12:49:04;3.22;;;0.43;;
69841;SDS011;57138;51.326;-0.068;2024-03-02T12:51:35;3.45;;;1.05;;
69841;SDS011;57138;51.326;-0.068;2024-03-02T12:54:00;3.00;;;0.75;;
69841;SDS011;57138;51.326;-0.068;2024-03-02T12:56:26;4.63;;;1.08;;
69841;SDS011;57138;51.326;-0.068;2024-03-02T12:58:55;9.68;;;1.67;;
69841;SDS011;57138;51.326;-0.068;2024-03-02T13:01:21;6.57;;;0.73;;
69841;SDS011;57138;51.326;-0.068;2024-03-02T13:03:50;5.43;;;0.70;;
69841;SDS011;57138;51.326;-0.068;2024-03-02T13:06:16;4.65;;;0.47;;
69841;SDS011;57138;51.326;-0.068;2024-03-02T13:08:42;3.20;;;0.80;;
69841;SDS011;57138;51.326;-0.068;2024-03-02T13:11:08;6.28;;;0.88;;
69841;SDS011;57138;51.326;-0.068;2024-03-02T13:13:33;4.95;;;0.63;;
69841;SDS011;57138;51.326;-0.068;2024-03-02T13:16:00;2.22;;;0.95;;
69841;SDS011;57138;51.326;-0.068;2024-03-02T13:18:26;4.65;;;0.75;;
69841;SDS011;57138;51.326;-0.068;2024-03-02T13:20:52;4.85;;;0.98;;
69841;SDS011;57138;51.326;-0.068;2024-03-02T13:23:17;8.32;;;1.42;;
69841;SDS011;57138;51.326;-0.068;2024-03-02T13:25:45;3.05;;;0.82;;
69841;SDS011;57138;51.326;-0.068;2024-03-02T13:28:13;4.05;;;0.88;;
69841;SDS011;57138;51.326;-0.068;2024-03-02T13:30:38;2.20;;;0.68;;
69841;SDS011;57138;51.326;-0.068;2024-03-02T13:33:04;2.00;;;0.50;;
69841;SDS011;57138;51.326;-0.068;2024-03-02T13:35:33;4.60;;;0.68;;
69841;SDS011;57138;51.326;-0.068;2024-03-02T13:37:59;3.45;;;0.80;;
69841;SDS011;57138;51.326;-0.068;2024-03-02T13:40:26;3.03;;;1.30;;
69841;SDS011;57138;51.326;-0.068;2024-03-02T13:42:52;4.88;;;0.40;;
69841;SDS011;57138;51.326;-0.068;2024-03-02T13:45:19;2.28;;;0.50;;
69841;SDS011;57138;51.326;-0.068;2024-03-02T13:47:45;2.05;;;0.30;;
69841;SDS011;57138;51.326;-0.068;2024-03-02T13:50:10;3.05;;;0.57;;
69841;SDS011;57138;51.326;-0.068;2024-03-02T13:52:36;3.67;;;0.57;;
69841;SDS011;57138;51.326;-0.068;2024-03-02T13:55:02;1.45;;;0.30;;
69841;SDS011;57138;51.326;-0.068;2024-03-02T13:57:28;1.77;;;0.40;;
69841;SDS011;57138;51.326;-0.068;2024-03-02T13:59:53;3.65;;;0.30;;
69841;SDS011;57138;51.326;-0.068;2024-03-02T14:02:20;3.38;;;0.50;;
69841;SDS011;57138;51.326;-0.068;2024-03-02T14:04:45;1.02;;;0.38;;
69841;SDS011;57138;51.326;-0.068;2024-03-02T14:07:15;2.90;;;0.80;;
69841;SDS011;57138;51.326;-0.068;2024-03-02T14:09:40;3.40;;;0.63;;
69841;SDS011;57138;51.326;-0.068;2024-03-02T14:12:06;6.05;;;0.70;;
69841;SDS011;57138;51.326;-0.068;2024-03-02T14:14:32;3.15;;;0.57;;
69841;SDS011;57138;51.326;-0.068;2024-03-02T14:16:58;3.35;;;0.60;;
69841;SDS011;57138;51.326;-0.068;2024-03-02T14:19:28;4.07;;;0.47;;
69841;SDS011;57138;51.326;-0.068;2024-03-02T14:21:54;5.45;;;0.60;;
69841;SDS011;57138;51.326;-0.068;2024-03-02T14:24:20;6.47;;;1.60;;
69841;SDS011;57138;51.326;-0.068;2024-03-02T14:26:49;1.52;;;0.40;;
69841;SDS011;57138;51.326;-0.068;2024-03-02T14:29:14;2.83;;;0.75;;
69841;SDS011;57138;51.326;-0.068;2024-03-02T14:31:40;2.55;;;0.80;;
69841;SDS011;57138;51.326;-0.068;2024-03-02T14:34:06;3.28;;;0.65;;
69841;SDS011;57138;51.326;-0.068;2024-03-02T14:36:32;3.97;;;0.55;;